createdAt,value
2017-08-30T06:39:55.520Z,49.7
2017-08-30T06:40:02.711Z,49.4
2017-08-30T06:41:02.373Z,48.7
2017-08-30T06:42:02.410Z,48.6
2017-08-30T06:43:02.635Z,48.5
2017-08-30T06:44:02.309Z,48.5
2017-08-30T06:45:02.543Z,48.5
2017-08-30T06:46:02.771Z,48.5
2017-08-30T06:47:02.856Z,48.5
2017-08-30T06:48:07.844Z,48.4
2017-08-30T06:49:02.687Z,48.4
2017-08-30T06:50:02.939Z,48.3
2017-08-30T06:51:02.982Z,48.4
2017-08-30T06:52:02.833Z,48.5
2017-08-30T06:53:02.878Z,48.5
2017-08-30T06:54:03.152Z,48.5
2017-08-30T06:55:03.488Z,48.5
2017-08-30T06:56:02.532Z,48.4
2017-08-30T06:57:02.200Z,48.8
2017-08-30T06:58:02.249Z,49.6
2017-08-30T06:59:02.279Z,50
2017-08-30T07:00:08.594Z,51
2017-08-30T07:01:02.416Z,51.5
2017-08-30T07:02:02.657Z,51.3
2017-08-30T07:03:02.914Z,50.7
2017-08-30T07:04:02.148Z,50.1
2017-08-30T07:05:02.817Z,50
2017-08-30T07:06:03.165Z,49.9
2017-08-30T07:07:02.405Z,49.9
2017-08-30T07:08:02.646Z,49.6
2017-08-30T07:09:02.689Z,49.1
2017-08-30T07:10:02.739Z,49.8
2017-08-30T07:11:02.574Z,49.7
2017-08-30T07:12:02.070Z,49.5
2017-08-30T07:13:02.297Z,49.8
2017-08-30T07:14:02.367Z,49.4
2017-08-30T07:15:02.225Z,49.9
2017-08-30T07:16:02.270Z,49.2
2017-08-30T07:17:02.654Z,49.4
2017-08-30T07:18:02.528Z,49.4
2017-08-30T07:19:02.595Z,49.4
2017-08-30T07:20:02.984Z,49.6
2017-08-30T07:21:02.438Z,49.4
2017-08-30T07:22:02.475Z,49.5
2017-08-30T07:23:02.515Z,49.3
2017-08-30T07:24:02.569Z,49.3
2017-08-30T07:25:02.816Z,49.3
2017-08-30T07:26:02.466Z,49.3
2017-08-30T07:27:02.678Z,49.3
2017-08-30T07:28:02.581Z,49.4
2017-08-30T07:29:02.617Z,49.2
2017-08-30T07:30:02.494Z,49.2
2017-08-30T07:31:02.540Z,49.2
2017-08-30T07:32:02.579Z,49.1
2017-08-30T07:33:02.431Z,49.4
2017-08-30T07:34:02.598Z,49.4
2017-08-30T07:35:02.837Z,49.3
2017-08-30T07:36:02.875Z,49.4
2017-08-30T07:37:02.561Z,49.7
2017-08-30T07:38:02.605Z,49.2
2017-08-30T07:39:02.461Z,49.2
2017-08-30T07:40:02.519Z,49.2
2017-08-30T07:41:02.574Z,49.3
2017-08-30T07:42:02.635Z,49.3
2017-08-30T07:43:02.877Z,49.3
2017-08-30T07:44:02.934Z,49.1
2017-08-30T07:45:02.080Z,49.3
2017-08-30T07:46:02.157Z,49.6
2017-08-30T07:47:02.612Z,49.7
2017-08-30T07:48:03.031Z,49.5
2017-08-30T07:49:01.895Z,49.8
2017-08-30T07:50:02.606Z,49.9
2017-08-30T07:51:02.674Z,49.6
2017-08-30T07:52:02.974Z,49.8
2017-08-30T07:53:03.044Z,49.7
2017-08-30T07:54:02.529Z,49.7
2017-08-30T07:55:03.049Z,49.6
2017-08-30T07:56:02.291Z,49.5
2017-08-30T07:57:02.138Z,49.6
2017-08-30T07:58:01.991Z,49.6
2017-08-30T07:59:02.227Z,49.5
2017-08-30T08:00:02.281Z,49.3
2017-08-30T08:01:02.489Z,49.4
2017-08-30T08:02:02.347Z,49.3
2017-08-30T08:03:02.381Z,49.2
2017-08-30T08:04:02.453Z,49.1
2017-08-30T08:05:02.116Z,49.1
2017-08-30T08:06:03.350Z,49.1
2017-08-30T08:07:02.232Z,49.1
2017-08-30T08:08:02.490Z,49.1
2017-08-30T08:09:02.541Z,49.1
2017-08-30T08:10:02.580Z,49.1
2017-08-30T08:11:02.803Z,49.1
2017-08-30T08:12:02.661Z,49.5
2017-08-30T08:13:02.897Z,49.2
2017-08-30T08:14:02.930Z,49.3
2017-08-30T08:15:02.592Z,49.8
2017-08-30T08:16:02.630Z,49.9
2017-08-30T08:17:02.971Z,49.9
2017-08-30T08:18:03.026Z,50.1
2017-08-30T08:19:02.883Z,50.2
2017-08-30T08:20:02.937Z,50.1
2017-08-30T08:21:02.971Z,49.9
2017-08-30T08:22:03.002Z,50.1
2017-08-30T08:23:03.054Z,50
2017-08-30T08:24:03.083Z,50
2017-08-30T08:25:02.935Z,50
2017-08-30T08:26:02.788Z,50.1
2017-08-30T08:27:02.654Z,50
2017-08-30T08:28:02.922Z,50.1
2017-08-30T08:29:03.175Z,50.4
2017-08-30T08:30:02.406Z,50.1
2017-08-30T08:31:02.443Z,50.2
2017-08-30T08:32:03.306Z,50.3
2017-08-30T08:33:03.171Z,50.3
2017-08-30T08:34:02.830Z,50
2017-08-30T08:35:03.233Z,50.1
2017-08-30T08:36:02.678Z,49.8
2017-08-30T08:37:02.817Z,49.9
2017-08-30T08:38:02.850Z,49.9
2017-08-30T08:39:03.031Z,49.8
2017-08-30T08:40:02.898Z,49.9
2017-08-30T08:41:03.146Z,49.9
2017-08-30T08:42:03.180Z,49.8
2017-08-30T08:43:02.258Z,49.8
2017-08-30T08:44:02.131Z,50
2017-08-30T08:45:03.358Z,49.8
2017-08-30T08:46:03.015Z,49.8
2017-08-30T08:47:03.114Z,50
2017-08-30T08:48:03.165Z,49.9
2017-08-30T08:49:10.351Z,49.9
2017-08-30T08:55:09.151Z,49.9
2017-08-30T09:02:09.081Z,50
2017-08-30T09:04:59.857Z,50.2
2017-08-30T09:09:42.036Z,49.9
2017-08-30T09:10:41.320Z,50
2017-08-30T09:11:41.551Z,50.1
2017-08-30T09:12:41.919Z,50.2
2017-08-30T09:13:41.142Z,50.2
2017-08-30T09:14:41.711Z,50.2
2017-08-30T09:15:41.991Z,50.2
2017-08-30T09:16:41.294Z,50.2
2017-08-30T09:17:41.348Z,50.4
2017-08-30T09:18:41.586Z,50.5
2017-08-30T09:19:41.683Z,50.3
2017-08-30T09:20:41.927Z,50.5
2017-08-30T09:21:41.398Z,50.5
2017-08-30T09:22:41.186Z,50.4
2017-08-30T09:23:56.631Z,50.5
2017-08-30T09:26:56.024Z,50.6
2017-08-30T09:27:43.287Z,50.5
2017-08-30T09:28:54.068Z,50.6
2017-08-30T09:30:04.771Z,50.8
2017-08-30T09:30:56.712Z,50.9
2017-08-30T09:31:55.154Z,50.9
2017-08-30T09:33:10.322Z,51
2017-08-30T09:34:26.504Z,50.8
2017-08-30T09:35:55.854Z,50.8
2017-08-30T09:37:48.163Z,50.9
2017-08-30T09:39:54.023Z,50.7
2017-08-30T09:48:31.929Z,53.9
2017-08-30T09:59:56.252Z,51.3
2017-08-30T10:00:49.427Z,51.3
2017-08-30T10:13:24.337Z,50.3
2017-08-30T10:14:25.593Z,50.2
2017-08-30T10:15:24.806Z,50
2017-08-30T10:16:24.647Z,49.8
2017-08-30T10:17:24.711Z,49.8
2017-08-30T10:18:24.738Z,49.7
2017-08-30T10:19:24.586Z,49.8
2017-08-30T10:20:24.611Z,49.7
2017-08-30T10:21:24.823Z,49.6
2017-08-30T10:22:25.040Z,49.7
2017-08-30T10:23:25.069Z,49.7
2017-08-30T10:24:25.102Z,49.6
2017-08-30T10:25:24.952Z,49.6
2017-08-30T10:26:25.355Z,49.6
2017-08-30T10:27:24.401Z,49.5
2017-08-30T10:28:24.258Z,49.6
2017-08-30T10:29:25.400Z,49.6
2017-08-30T10:30:24.607Z,49.5
2017-08-30T10:31:24.459Z,49.4
2017-08-30T10:32:24.509Z,49.3
2017-08-30T10:33:24.392Z,49.1
2017-08-30T10:34:24.612Z,48.9
2017-08-30T10:35:24.834Z,48.9
2017-08-30T10:36:25.045Z,49
2017-08-30T10:37:24.910Z,48.8
2017-08-30T10:38:24.765Z,48.7
2017-08-30T10:39:24.787Z,48.5
2017-08-30T10:40:25.116Z,48.2
2017-08-30T10:41:25.354Z,47.9
2017-08-30T10:43:24.285Z,47.9
2017-08-30T10:44:24.715Z,47.7
2017-08-30T10:45:24.739Z,47.6
2017-08-30T10:46:24.626Z,47.6
2017-08-30T10:47:24.486Z,47.4
2017-08-30T10:48:25.341Z,47.3
2017-08-30T10:49:24.416Z,47.2
2017-08-30T10:50:25.603Z,47.2
2017-08-30T10:51:24.253Z,47.2
2017-08-30T10:52:25.100Z,47.1
2017-08-30T10:53:25.331Z,47
2017-08-30T10:54:24.198Z,47.1
2017-08-30T10:55:25.244Z,47
2017-08-30T10:56:24.578Z,46.6
2017-08-30T10:57:24.622Z,46.5
2017-08-30T10:58:24.670Z,46.4
2017-08-30T10:59:24.690Z,46.3
2017-08-30T11:00:24.748Z,46.2
2017-08-30T11:01:24.588Z,46
2017-08-30T11:02:02.674Z,46.1
2017-08-30T11:03:02.912Z,46.1
2017-08-30T11:04:02.942Z,46
2017-08-30T11:05:03.009Z,46
2017-08-30T11:06:02.237Z,45.9
2017-08-30T11:07:03.287Z,45.8
2017-08-30T11:08:02.328Z,45.5
2017-08-30T11:09:02.176Z,45.3
2017-08-30T11:10:03.020Z,45
2017-08-30T11:11:03.064Z,45
2017-08-30T11:12:02.915Z,44.6
2017-08-30T11:13:02.060Z,44.7
2017-08-30T11:14:02.901Z,44.7
2017-08-30T11:15:02.945Z,44.8
2017-08-30T11:16:02.971Z,44.9
2017-08-30T11:17:03.207Z,45.1
2017-08-30T11:18:02.877Z,45.1
2017-08-30T11:19:03.286Z,45.3
2017-08-30T11:20:02.331Z,45
2017-08-30T11:21:02.581Z,45
2017-08-30T11:22:02.426Z,44.9
2017-08-30T11:23:03.007Z,44.9
2017-08-30T11:24:03.242Z,44.8
2017-08-30T11:25:02.471Z,44.7
2017-08-30T11:26:02.748Z,44.7
2017-08-30T11:27:02.995Z,44.6
2017-08-30T11:28:03.209Z,44.5
2017-08-30T11:29:02.856Z,44.6
2017-08-30T11:30:02.725Z,44.6
2017-08-30T11:31:02.949Z,44.6
2017-08-30T11:32:02.980Z,44.4
2017-08-30T11:33:02.822Z,44.2
2017-08-30T11:34:02.671Z,43.9
2017-08-30T11:35:03.082Z,43.9
2017-08-30T11:36:02.729Z,43.5
2017-08-30T11:37:02.986Z,43.1
2017-08-30T11:38:02.829Z,42.6
2017-08-30T11:39:02.805Z,42.5
2017-08-30T11:40:02.853Z,42.3
2017-08-30T11:41:03.078Z,42
2017-08-30T11:42:03.114Z,41.9
2017-08-30T11:43:02.975Z,41.6
2017-08-30T11:44:02.841Z,41.6
2017-08-30T11:45:02.503Z,41.4
2017-08-30T11:46:02.161Z,41.6
2017-08-30T11:47:02.580Z,41.7
2017-08-30T11:48:02.247Z,41.8
2017-08-30T11:49:02.084Z,42
2017-08-30T11:50:03.291Z,42.2
2017-08-30T11:51:02.195Z,42.4
2017-08-30T11:52:02.257Z,42.4
2017-08-30T11:53:02.287Z,42.4
2017-08-30T11:54:02.716Z,42.4
2017-08-30T11:55:02.767Z,42.5
2017-08-30T11:56:02.657Z,42.6
2017-08-30T11:57:02.894Z,42.6
2017-08-30T11:58:02.580Z,42.6
2017-08-30T11:59:02.638Z,42.5
2017-08-30T12:00:02.314Z,42.5
2017-08-30T12:01:03.176Z,42.5
2017-08-30T12:02:02.615Z,42.4
2017-08-30T12:03:02.474Z,42.6
2017-08-30T12:04:02.520Z,42.6
2017-08-30T12:05:02.565Z,42.6
2017-08-30T12:06:02.466Z,42.7
2017-08-30T12:07:02.491Z,42.6
2017-08-30T12:08:03.340Z,42.8
2017-08-30T12:09:03.183Z,42.6
2017-08-30T12:10:02.588Z,42.7
2017-08-30T12:11:02.639Z,42.7
2017-08-30T12:12:02.706Z,42.8
2017-08-30T12:13:02.743Z,42.9
2017-08-30T12:14:02.598Z,42.8
2017-08-30T12:15:02.448Z,42.8
2017-08-30T12:16:02.304Z,42.7
2017-08-30T12:17:03.705Z,42.8
2017-08-30T12:18:02.368Z,42.8
2017-08-30T12:19:03.023Z,42.8
2017-08-30T12:20:02.885Z,42.9
2017-08-30T12:21:02.914Z,42.9
2017-08-30T12:22:02.758Z,42.7
2017-08-30T12:23:02.813Z,42.8
2017-08-30T12:24:02.517Z,42.7
2017-08-30T12:25:02.555Z,42.7
2017-08-30T12:26:03.025Z,42.7
2017-08-30T12:27:03.461Z,42.7
2017-08-30T12:28:02.988Z,42.6
2017-08-30T12:29:03.234Z,42.6
2017-08-30T12:30:03.286Z,42.6
2017-08-30T12:31:02.351Z,42.5
2017-08-30T12:32:03.610Z,42.5
2017-08-30T12:33:02.934Z,42.6
2017-08-30T12:34:03.260Z,42.5
2017-08-30T12:35:03.300Z,42.4
2017-08-30T12:36:02.961Z,42.3
2017-08-30T12:37:02.811Z,42.4
2017-08-30T12:38:03.034Z,42.3
2017-08-30T12:39:02.986Z,42.3
2017-08-30T12:40:03.208Z,42.2
2017-08-30T12:41:03.050Z,42.3
2017-08-30T12:42:03.102Z,42.1
2017-08-30T12:43:02.970Z,42
2017-08-30T12:44:03.224Z,42
2017-08-30T12:45:02.682Z,42.1
2017-08-30T12:46:02.533Z,42.1
2017-08-30T12:47:02.758Z,41.8
2017-08-30T12:48:02.989Z,41.8
2017-08-30T12:49:02.834Z,41.6
2017-08-30T12:50:02.869Z,41.4
2017-08-30T12:51:02.554Z,41.4
2017-08-30T12:52:03.414Z,41.5
2017-08-30T12:53:03.120Z,41.5
2017-08-30T12:54:03.023Z,41.4
2017-08-30T12:55:03.269Z,41.4
2017-08-30T12:56:03.116Z,41.2
2017-08-30T12:57:02.944Z,41
2017-08-30T12:58:02.978Z,40.8
2017-08-30T12:59:03.014Z,40.7
2017-08-30T13:00:02.891Z,41
2017-08-30T13:01:03.458Z,40.7
2017-08-30T13:02:03.879Z,40.8
2017-08-30T13:03:03.728Z,40.8
2017-08-30T13:04:03.387Z,40.8
2017-08-30T13:05:03.615Z,40.7
2017-08-30T13:06:03.658Z,40.6
2017-08-30T13:07:03.319Z,40.8
2017-08-30T13:08:03.352Z,40.7
2017-08-30T13:09:03.191Z,40.7
2017-08-30T13:10:03.223Z,40.7
2017-08-30T13:11:03.278Z,40.8
2017-08-30T13:12:03.120Z,40.7
2017-08-30T13:13:02.960Z,40.7
2017-08-30T13:14:03.218Z,40.8
2017-08-30T13:15:03.282Z,41
2017-08-30T13:16:02.959Z,40.8
2017-08-30T13:17:03.660Z,40.7
2017-08-30T13:18:03.915Z,40.6
2017-08-30T13:19:03.164Z,40.7
2017-08-30T13:20:03.217Z,40.6
2017-08-30T13:21:03.614Z,40.6
2017-08-30T13:22:03.652Z,40.6
2017-08-30T13:23:03.879Z,40.6
2017-08-30T13:24:03.709Z,40.6
2017-08-30T13:25:03.949Z,40.5
2017-08-30T13:26:03.816Z,40.3
2017-08-30T13:27:03.870Z,40.4
2017-08-30T13:28:03.954Z,40.5
2017-08-30T13:29:03.610Z,40.4
2017-08-30T13:30:03.633Z,40.4
2017-08-30T13:31:03.288Z,40.3
2017-08-30T13:32:03.854Z,40.3
2017-08-30T13:33:03.699Z,40.3
2017-08-30T13:34:04.106Z,40.1
2017-08-30T13:35:03.144Z,40.2
2017-08-30T13:36:03.179Z,40.4
2017-08-30T13:37:03.224Z,40.4
2017-08-30T13:38:03.253Z,40.5
2017-08-30T13:39:03.281Z,41
2017-08-30T13:40:03.500Z,41.3
2017-08-30T13:41:03.518Z,42.1
2017-08-30T13:42:02.984Z,42.2
2017-08-30T13:43:03.366Z,42.4
2017-08-30T13:44:03.593Z,42.6
2017-08-30T13:45:03.615Z,42.7
2017-08-30T13:46:03.929Z,42.6
2017-08-30T13:47:02.974Z,42.5
2017-08-30T13:48:03.491Z,42.3
2017-08-30T13:49:02.984Z,42.3
2017-08-30T13:50:04.012Z,42.2
2017-08-30T13:51:03.513Z,42.3
2017-08-30T13:52:03.741Z,42.3
2017-08-30T13:53:04.024Z,42.5
2017-08-30T13:54:03.791Z,42.2
2017-08-30T13:55:04.022Z,42.6
2017-08-30T13:56:03.710Z,42.6
2017-08-30T13:57:03.683Z,42.6
2017-08-30T13:58:03.770Z,43
2017-08-30T13:59:03.150Z,42.8
2017-08-30T14:00:03.160Z,42.8
2017-08-30T14:01:03.039Z,43
2017-08-30T14:02:03.133Z,42.8
2017-08-30T14:03:02.409Z,43
2017-08-30T14:04:03.244Z,43.2
2017-08-30T14:05:02.660Z,43.1
2017-08-30T14:06:02.451Z,43.3
2017-08-30T14:07:02.486Z,43.3
2017-08-30T14:08:03.044Z,43.3
2017-08-30T14:09:03.473Z,43.5
2017-08-30T14:10:02.615Z,43.3
2017-08-30T14:11:02.553Z,43.3
2017-08-30T14:12:02.426Z,43.4
2017-08-30T14:13:02.468Z,43.5
2017-08-30T14:14:03.121Z,43.5
2017-08-30T14:15:03.347Z,43.4
2017-08-30T14:16:02.821Z,43.5
2017-08-30T14:17:02.480Z,43.5
2017-08-30T14:18:02.536Z,43.5
2017-08-30T14:19:02.668Z,43.5
2017-08-30T14:20:02.709Z,43.4
2017-08-30T14:21:03.055Z,43.4
2017-08-30T14:22:02.905Z,43.5
2017-08-30T14:23:02.567Z,43.6
2017-08-30T14:24:02.603Z,43.7
2017-08-30T14:25:02.845Z,43.8
2017-08-30T14:26:02.718Z,43.7
2017-08-30T14:27:02.583Z,43.8
2017-08-30T14:28:02.819Z,43.9
2017-08-30T14:29:02.867Z,43.7
2017-08-30T14:30:03.313Z,43.7
2017-08-30T14:31:02.911Z,43.6
2017-08-30T14:32:02.953Z,43.8
2017-08-30T14:33:03.002Z,43.9
2017-08-30T14:34:03.043Z,43.8
2017-08-30T14:35:02.273Z,43.9
2017-08-30T14:36:03.429Z,44
2017-08-30T14:37:03.095Z,43.9
2017-08-30T14:38:03.187Z,44
2017-08-30T14:39:02.880Z,44.1
2017-08-30T14:40:02.752Z,44.1
2017-08-30T14:41:02.926Z,44.2
2017-08-30T14:42:02.991Z,44.4
2017-08-30T14:43:03.575Z,44.5
2017-08-30T14:44:02.638Z,44.5
2017-08-30T14:45:02.685Z,44.5
2017-08-30T14:46:02.550Z,44.5
2017-08-30T14:47:02.210Z,44.5
2017-08-30T14:48:02.238Z,44.5
2017-08-30T14:49:02.112Z,44.5
2017-08-30T14:50:03.152Z,44.6
2017-08-30T14:51:02.834Z,44.5
2017-08-30T14:52:02.890Z,44.5
2017-08-30T14:53:03.281Z,44.6
2017-08-30T14:54:02.755Z,44.7
2017-08-30T14:55:03.184Z,44.9
2017-08-30T14:56:03.227Z,45
2017-08-30T14:57:03.087Z,44.9
2017-08-30T14:58:02.960Z,45.1
2017-08-30T14:59:02.618Z,45.1
2017-08-30T15:00:02.675Z,45
2017-08-30T15:01:02.837Z,45
2017-08-30T15:02:03.038Z,45
2017-08-30T15:03:03.301Z,45.1
2017-08-30T15:04:03.360Z,45.1
2017-08-30T15:05:03.191Z,45.1
2017-08-30T15:06:03.051Z,45
2017-08-30T15:07:02.686Z,45.1
2017-08-30T15:08:02.853Z,45
2017-08-30T15:09:03.246Z,45
2017-08-30T15:10:03.582Z,45.1
2017-08-30T15:11:02.833Z,45.1
2017-08-30T15:12:02.782Z,45.2
2017-08-30T15:13:02.837Z,45.2
2017-08-30T15:14:03.540Z,45.3
2017-08-30T15:15:03.012Z,45.3
2017-08-30T15:16:03.232Z,45.3
2017-08-30T15:17:03.362Z,45.3
2017-08-30T15:18:03.298Z,45.4
2017-08-30T15:19:02.786Z,45.5
2017-08-30T15:20:03.273Z,45.5
2017-08-30T15:21:03.427Z,45.7
2017-08-30T15:22:03.580Z,45.6
2017-08-30T15:23:03.556Z,45.6
2017-08-30T15:24:02.539Z,45.5
2017-08-30T15:25:03.866Z,45.6
2017-08-30T15:26:02.571Z,45.5
2017-08-30T15:27:03.241Z,45.6
2017-08-30T15:28:03.324Z,45.6
2017-08-30T15:29:02.999Z,45.5
2017-08-30T15:30:02.789Z,45.6
2017-08-30T15:31:02.656Z,45.7
2017-08-30T15:32:02.697Z,45.7
2017-08-30T15:33:02.733Z,45.7
2017-08-30T15:34:03.236Z,45.9
2017-08-30T15:35:02.605Z,45.9
2017-08-30T15:36:03.765Z,46
2017-08-30T15:37:02.916Z,46
2017-08-30T15:38:02.973Z,45.9
2017-08-30T15:39:03.408Z,46
2017-08-30T15:40:03.286Z,45.9
2017-08-30T15:41:03.334Z,45.9
2017-08-30T15:42:02.590Z,46.2
2017-08-30T15:43:02.451Z,46.2
2017-08-30T15:44:02.867Z,46.1
2017-08-30T15:45:03.101Z,46.1
2017-08-30T15:46:03.149Z,46
2017-08-30T15:47:03.498Z,46.1
2017-08-30T15:49:02.441Z,46.2
2017-08-30T15:50:02.666Z,46.2
2017-08-30T15:51:03.094Z,46
2017-08-30T15:52:02.970Z,46.1
2017-08-30T15:53:03.082Z,46.1
2017-08-30T15:54:03.146Z,46.1
2017-08-30T15:55:03.428Z,46
2017-08-30T15:56:03.714Z,46.1
2017-08-30T15:57:02.421Z,46
2017-08-30T15:58:03.290Z,46.1
2017-08-30T15:59:03.170Z,46.1
2017-08-30T16:00:03.248Z,46.2
2017-08-30T16:01:03.060Z,46.5
2017-08-30T16:02:02.955Z,46.6
2017-08-30T16:03:03.226Z,46.6
2017-08-30T16:04:03.836Z,46.6
2017-08-30T16:05:02.876Z,46.6
2017-08-30T16:06:03.031Z,46.5
2017-08-30T16:07:03.230Z,46.5
2017-08-30T16:08:03.018Z,46.5
2017-08-30T16:09:03.166Z,46.5
2017-08-30T16:10:03.152Z,46.6
2017-08-30T16:11:03.408Z,46.5
2017-08-30T16:12:07.334Z,46.5
2017-08-30T16:13:02.402Z,46.6
2017-08-30T16:14:02.891Z,46.6
2017-08-30T16:15:03.127Z,46.5
2017-08-30T16:16:03.480Z,46.5
2017-08-30T16:17:03.662Z,47.4
2017-08-30T16:18:02.907Z,47.2
2017-08-30T16:19:02.814Z,47.2
2017-08-30T16:20:03.403Z,47.2
2017-08-30T16:21:03.016Z,47.3
2017-08-30T16:22:03.000Z,47.3
2017-08-30T16:23:02.957Z,47.3
2017-08-30T16:24:03.096Z,47.4
2017-08-30T16:25:03.169Z,47.4
2017-08-30T16:26:03.085Z,48.2
2017-08-30T16:27:03.143Z,48.7
2017-08-30T16:28:03.210Z,47.7
2017-08-30T16:29:03.202Z,47.4
2017-08-30T16:30:03.386Z,47.8
2017-08-30T16:31:03.612Z,47.9
2017-08-30T16:32:02.645Z,48
2017-08-30T16:33:02.697Z,47.9
2017-08-30T16:34:02.754Z,47.9
2017-08-30T16:35:02.974Z,48
2017-08-30T16:36:02.685Z,48.2
2017-08-30T16:37:03.072Z,48.4
2017-08-30T16:38:02.945Z,48.5
2017-08-30T16:39:03.184Z,48.5
2017-08-30T16:40:03.238Z,48.4
2017-08-30T16:41:02.901Z,48.4
2017-08-30T16:42:03.622Z,48.3
2017-08-30T16:43:03.091Z,48.3
2017-08-30T16:44:03.649Z,48.2
2017-08-30T16:45:02.515Z,48.3
2017-08-30T16:46:03.025Z,48.4
2017-08-30T16:47:02.928Z,48.6
2017-08-30T16:48:02.786Z,48.6
2017-08-30T16:49:02.865Z,48.5
2017-08-30T16:50:03.182Z,48.6
2017-08-30T16:51:03.044Z,48.7
2017-08-30T16:52:03.287Z,48.7
2017-08-30T16:53:03.452Z,49
2017-08-30T16:54:02.719Z,48.9
2017-08-30T16:55:02.986Z,49
2017-08-30T16:56:03.041Z,49.2
2017-08-30T16:57:03.274Z,49.1
2017-08-30T16:58:03.721Z,49.1
2017-08-30T16:59:02.814Z,49.1
2017-08-30T17:00:03.081Z,49.1
2017-08-30T17:01:02.473Z,49.4
2017-08-30T17:02:02.336Z,49.5
2017-08-30T17:03:02.565Z,49.5
2017-08-30T17:04:02.775Z,49.5
2017-08-30T17:05:03.005Z,49.6
2017-08-30T17:06:02.669Z,49.6
2017-08-30T17:07:02.525Z,49.4
2017-08-30T17:08:02.582Z,49.3
2017-08-30T17:09:03.025Z,49.2
2017-08-30T17:10:02.880Z,49.2
2017-08-30T17:11:02.728Z,49.3
2017-08-30T17:12:02.586Z,49.1
2017-08-30T17:13:02.427Z,49.2
2017-08-30T17:14:02.489Z,49.3
2017-08-30T17:15:02.861Z,49.2
2017-08-30T17:16:02.725Z,49.3
2017-08-30T17:17:02.602Z,49.4
2017-08-30T17:18:02.875Z,49.1
2017-08-30T17:19:02.546Z,49.1
2017-08-30T17:20:02.793Z,49
2017-08-30T17:21:03.027Z,48.9
2017-08-30T17:22:02.074Z,48.9
2017-08-30T17:23:02.915Z,48.8
2017-08-30T17:24:02.806Z,48.7
2017-08-30T17:25:03.583Z,48.8
2017-08-30T17:26:02.622Z,48.6
2017-08-30T17:27:02.453Z,48.7
2017-08-30T17:28:02.329Z,48.9
2017-08-30T17:29:02.558Z,49
2017-08-30T17:30:02.690Z,48.9
2017-08-30T17:31:02.791Z,48.9
2017-08-30T17:32:02.830Z,48.9
2017-08-30T17:33:02.673Z,48.9
2017-08-30T17:34:02.724Z,48.9
2017-08-30T17:35:02.967Z,49.1
2017-08-30T17:36:03.537Z,49
2017-08-30T17:37:02.763Z,48.9
2017-08-30T17:38:02.816Z,49
2017-08-30T17:39:02.874Z,49.1
2017-08-30T17:40:03.103Z,49
2017-08-30T17:41:02.540Z,48.9
2017-08-30T17:42:03.119Z,49.1
2017-08-30T17:43:02.576Z,48.9
2017-08-30T17:44:02.640Z,49.2
2017-08-30T17:45:02.466Z,49.3
2017-08-30T17:46:02.645Z,49.1
2017-08-30T17:47:02.991Z,49.1
2017-08-30T17:48:02.922Z,49.3
2017-08-30T17:49:02.825Z,49.1
2017-08-30T17:50:02.879Z,49.3
2017-08-30T17:51:02.965Z,49.2
2017-08-30T17:52:03.531Z,49.3
2017-08-30T17:53:02.492Z,49.4
2017-08-30T17:54:02.213Z,49.6
2017-08-30T17:55:02.317Z,49.3
2017-08-30T17:56:02.173Z,49.4
2017-08-30T17:57:02.517Z,49.4
2017-08-30T17:58:02.798Z,49.3
2017-08-30T17:59:03.157Z,49.4
2017-08-30T18:00:02.648Z,49.4
2017-08-30T18:01:02.849Z,49.4
2017-08-30T18:02:03.043Z,49.4
2017-08-30T18:03:02.891Z,49.3
2017-08-30T18:04:03.018Z,49.7
2017-08-30T18:05:02.510Z,49.6
2017-08-30T18:06:02.630Z,49.5
2017-08-30T18:07:02.315Z,50
2017-08-30T18:08:02.793Z,50.1
